sensor_id;sensor_type;location;lat;lon;timestamp;P1;durP1;ratioP1;P2;durP2;ratioP2
32824;SDS011;51060;42.640;24.356;2024-03-17T00:01:03;23.23;;;17.07;;
32824;SDS011;51060;42.640;24.356;2024-03-17T00:03:29;22.90;;;17.33;;
32824;SDS011;51060;42.640;24.356;2024-03-17T00:05:58;20.17;;;15.47;;
32824;SDS011;51060;42.640;24.356;2024-03-17T00:08:25;19.50;;;14.07;;
32824;SDS011;51060;42.640;24.356;2024-03-17T00:10:51;18.20;;;14.23;;
32824;SDS011;51060;42.640;24.356;2024-03-17T00:13:20;17.07;;;12.63;;
32824;SDS011;51060;42.640;24.356;2024-03-17T00:15:47;17.27;;;11.77;;
32824;SDS011;51060;42.640;24.356;2024-03-17T00:18:15;9.73;;;7.97;;
32824;SDS011;51060;42.640;24.356;2024-03-17T00:20:41;15.23;;;9.83;;
32824;SDS011;51060;42.640;24.356;2024-03-17T00:23:08;15.17;;;9.77;;
32824;SDS011;51060;42.640;24.356;2024-03-17T00:25:34;16.37;;;10.70;;
32824;SDS011;51060;42.640;24.356;2024-03-17T00:28:01;14.17;;;9.10;;
32824;SDS011;51060;42.640;24.356;2024-03-17T00:30:27;11.53;;;8.53;;
32824;SDS011;51060;42.640;24.356;2024-03-17T00:32:52;13.43;;;8.87;;
32824;SDS011;51060;42.640;24.356;2024-03-17T00:35:18;12.03;;;8.57;;
32824;SDS011;51060;42.640;24.356;2024-03-17T00:37:47;11.07;;;8.20;;
32824;SDS011;51060;42.640;24.356;2024-03-17T00:40:14;10.57;;;8.13;;
32824;SDS011;51060;42.640;24.356;2024-03-17T00:42:41;10.40;;;8.07;;
32824;SDS011;51060;42.640;24.356;2024-03-17T00:45:07;12.30;;;8.90;;
32824;SDS011;51060;42.640;24.356;2024-03-17T00:47:35;10.50;;;8.70;;
32824;SDS011;51060;42.640;24.356;2024-03-17T00:50:01;11.47;;;9.37;;
32824;SDS011;51060;42.640;24.356;2024-03-17T00:52:27;10.37;;;8.33;;
32824;SDS011;51060;42.640;24.356;2024-03-17T00:54:52;12.07;;;9.03;;
32824;SDS011;51060;42.640;24.356;2024-03-17T00:57:19;10.90;;;9.07;;
32824;SDS011;51060;42.640;24.356;2024-03-17T00:59:45;11.53;;;8.73;;
32824;SDS011;51060;42.640;24.356;2024-03-17T01:02:10;12.83;;;9.43;;
32824;SDS011;51060;42.640;24.356;2024-03-17T01:04:39;17.97;;;13.33;;
32824;SDS011;51060;42.640;24.356;2024-03-17T01:07:09;21.33;;;15.00;;
32824;SDS011;51060;42.640;24.356;2024-03-17T01:09:35;15.10;;;11.90;;
32824;SDS011;51060;42.640;24.356;2024-03-17T01:12:00;14.23;;;10.33;;
32824;SDS011;51060;42.640;24.356;2024-03-17T01:14:27;14.73;;;10.50;;
32824;SDS011;51060;42.640;24.356;2024-03-17T01:16:53;13.13;;;9.97;;
32824;SDS011;51060;42.640;24.356;2024-03-17T01:19:18;11.83;;;9.77;;
32824;SDS011;51060;42.640;24.356;2024-03-17T01:21:44;13.20;;;9.77;;
32824;SDS011;51060;42.640;24.356;2024-03-17T01:24:10;13.67;;;9.93;;
32824;SDS011;51060;42.640;24.356;2024-03-17T01:26:35;10.40;;;8.80;;
32824;SDS011;51060;42.640;24.356;2024-03-17T01:29:01;12.60;;;9.50;;
32824;SDS011;51060;42.640;24.356;2024-03-17T01:31:27;12.30;;;9.30;;
32824;SDS011;51060;42.640;24.356;2024-03-17T01:33:52;10.73;;;8.90;;
32824;SDS011;51060;42.640;24.356;2024-03-17T01:36:18;11.23;;;9.13;;
32824;SDS011;51060;42.640;24.356;2024-03-17T01:38:44;13.00;;;10.20;;
32824;SDS011;51060;42.640;24.356;2024-03-17T01:41:10;14.50;;;10.77;;
32824;SDS011;51060;42.640;24.356;2024-03-17T01:43:35;11.93;;;10.33;;
32824;SDS011;51060;42.640;24.356;2024-03-17T01:46:01;15.13;;;10.60;;
32824;SDS011;51060;42.640;24.356;2024-03-17T01:48:27;12.60;;;10.37;;
32824;SDS011;51060;42.640;24.356;2024-03-17T01:50:55;13.30;;;10.57;;
32824;SDS011;51060;42.640;24.356;2024-03-17T01:53:21;13.27;;;10.70;;
32824;SDS011;51060;42.640;24.356;2024-03-17T01:55:47;25.20;;;16.17;;
32824;SDS011;51060;42.640;24.356;2024-03-17T01:58:13;52.73;;;32.80;;
32824;SDS011;51060;42.640;24.356;2024-03-17T02:00:39;17.00;;;12.47;;
32824;SDS011;51060;42.640;24.356;2024-03-17T02:03:05;13.03;;;9.87;;
32824;SDS011;51060;42.640;24.356;2024-03-17T02:05:32;13.63;;;10.53;;
32824;SDS011;51060;42.640;24.356;2024-03-17T02:07:59;13.80;;;10.03;;
32824;SDS011;51060;42.640;24.356;2024-03-17T02:10:25;18.50;;;13.53;;
32824;SDS011;51060;42.640;24.356;2024-03-17T02:12:50;25.90;;;17.97;;
32824;SDS011;51060;42.640;24.356;2024-03-17T02:15:19;21.47;;;16.23;;
32824;SDS011;51060;42.640;24.356;2024-03-17T02:17:45;17.43;;;13.40;;
32824;SDS011;51060;42.640;24.356;2024-03-17T02:20:11;17.43;;;13.60;;
32824;SDS011;51060;42.640;24.356;2024-03-17T02:22:39;15.10;;;11.13;;
32824;SDS011;51060;42.640;24.356;2024-03-17T02:25:05;16.40;;;11.90;;
32824;SDS011;51060;42.640;24.356;2024-03-17T02:27:36;16.20;;;12.47;;
32824;SDS011;51060;42.640;24.356;2024-03-17T02:30:02;16.53;;;12.97;;
32824;SDS011;51060;42.640;24.356;2024-03-17T02:32:29;14.50;;;11.23;;
32824;SDS011;51060;42.640;24.356;2024-03-17T02:34:55;14.73;;;10.47;;
32824;SDS011;51060;42.640;24.356;2024-03-17T02:37:22;14.27;;;10.53;;
32824;SDS011;51060;42.640;24.356;2024-03-17T02:39:47;12.90;;;10.60;;
32824;SDS011;51060;42.640;24.356;2024-03-17T02:42:13;15.03;;;10.00;;
32824;SDS011;51060;42.640;24.356;2024-03-17T02:44:39;13.10;;;10.40;;
32824;SDS011;51060;42.640;24.356;2024-03-17T02:47:06;13.80;;;10.37;;
32824;SDS011;51060;42.640;24.356;2024-03-17T02:49:35;15.50;;;12.10;;
32824;SDS011;51060;42.640;24.356;2024-03-17T02:52:09;18.53;;;14.17;;
32824;SDS011;51060;42.640;24.356;2024-03-17T02:54:36;16.90;;;13.70;;
32824;SDS011;51060;42.640;24.356;2024-03-17T02:57:05;20.90;;;14.80;;
32824;SDS011;51060;42.640;24.356;2024-03-17T02:59:31;19.23;;;13.83;;
32824;SDS011;51060;42.640;24.356;2024-03-17T03:01:58;17.87;;;14.53;;
32824;SDS011;51060;42.640;24.356;2024-03-17T03:04:27;17.93;;;14.63;;
32824;SDS011;51060;42.640;24.356;2024-03-17T03:06:53;27.80;;;21.90;;
32824;SDS011;51060;42.640;24.356;2024-03-17T03:09:21;30.00;;;21.70;;
32824;SDS011;51060;42.640;24.356;2024-03-17T03:11:56;25.20;;;18.30;;
32824;SDS011;51060;42.640;24.356;2024-03-17T03:14:22;19.07;;;14.73;;
32824;SDS011;51060;42.640;24.356;2024-03-17T03:16:47;18.07;;;12.83;;
32824;SDS011;51060;42.640;24.356;2024-03-17T03:19:14;21.90;;;15.20;;
32824;SDS011;51060;42.640;24.356;2024-03-17T03:21:44;22.80;;;17.00;;
32824;SDS011;51060;42.640;24.356;2024-03-17T03:24:10;19.80;;;15.80;;
32824;SDS011;51060;42.640;24.356;2024-03-17T03:26:37;22.70;;;17.47;;
32824;SDS011;51060;42.640;24.356;2024-03-17T03:29:03;23.30;;;18.47;;
32824;SDS011;51060;42.640;24.356;2024-03-17T03:31:30;27.23;;;20.00;;
32824;SDS011;51060;42.640;24.356;2024-03-17T03:33:56;32.40;;;23.43;;
32824;SDS011;51060;42.640;24.356;2024-03-17T03:36:22;28.00;;;21.30;;
32824;SDS011;51060;42.640;24.356;2024-03-17T03:38:48;25.37;;;19.83;;
32824;SDS011;51060;42.640;24.356;2024-03-17T03:41:14;25.23;;;19.13;;
32824;SDS011;51060;42.640;24.356;2024-03-17T03:43:41;27.60;;;18.57;;
32824;SDS011;51060;42.640;24.356;2024-03-17T03:46:07;26.10;;;18.60;;
32824;SDS011;51060;42.640;24.356;2024-03-17T03:48:33;23.57;;;16.50;;
32824;SDS011;51060;42.640;24.356;2024-03-17T03:51:05;25.10;;;17.57;;
32824;SDS011;51060;42.640;24.356;2024-03-17T03:53:32;28.07;;;19.20;;
32824;SDS011;51060;42.640;24.356;2024-03-17T03:55:58;27.03;;;17.63;;
32824;SDS011;51060;42.640;24.356;2024-03-17T03:58:29;25.83;;;18.70;;
32824;SDS011;51060;42.640;24.356;2024-03-17T04:00:55;26.83;;;17.83;;
32824;SDS011;51060;42.640;24.356;2024-03-17T04:03:21;28.00;;;18.20;;
32824;SDS011;51060;42.640;24.356;2024-03-17T04:05:48;26.80;;;18.83;;
32824;SDS011;51060;42.640;24.356;2024-03-17T04:08:13;26.70;;;18.83;;
32824;SDS011;51060;42.640;24.356;2024-03-17T04:10:39;26.30;;;18.87;;
32824;SDS011;51060;42.640;24.356;2024-03-17T04:13:05;26.87;;;19.77;;
32824;SDS011;51060;42.640;24.356;2024-03-17T04:15:30;26.17;;;19.07;;
32824;SDS011;51060;42.640;24.356;2024-03-17T04:17:56;29.40;;;20.07;;
32824;SDS011;51060;42.640;24.356;2024-03-17T04:20:22;31.93;;;22.17;;
32824;SDS011;51060;42.640;24.356;2024-03-17T04:22:47;32.40;;;22.47;;
32824;SDS011;51060;42.640;24.356;2024-03-17T04:25:13;34.57;;;24.40;;
32824;SDS011;51060;42.640;24.356;2024-03-17T04:27:40;31.53;;;21.70;;
32824;SDS011;51060;42.640;24.356;2024-03-17T04:30:06;26.23;;;19.87;;
32824;SDS011;51060;42.640;24.356;2024-03-17T04:32:32;23.10;;;17.97;;
32824;SDS011;51060;42.640;24.356;2024-03-17T04:34:58;19.50;;;15.33;;
32824;SDS011;51060;42.640;24.356;2024-03-17T04:37:24;24.53;;;19.33;;
32824;SDS011;51060;42.640;24.356;2024-03-17T04:39:50;22.13;;;17.17;;
32824;SDS011;51060;42.640;24.356;2024-03-17T04:42:16;24.13;;;17.17;;
32824;SDS011;51060;42.640;24.356;2024-03-17T04:44:43;34.33;;;23.83;;
32824;SDS011;51060;42.640;24.356;2024-03-17T04:47:09;50.53;;;31.00;;
32824;SDS011;51060;42.640;24.356;2024-03-17T04:52:10;57.03;;;35.60;;
32824;SDS011;51060;42.640;24.356;2024-03-17T04:54:37;54.60;;;35.73;;
32824;SDS011;51060;42.640;24.356;2024-03-17T04:57:03;57.83;;;36.27;;
32824;SDS011;51060;42.640;24.356;2024-03-17T04:59:29;59.10;;;35.63;;
32824;SDS011;51060;42.640;24.356;2024-03-17T05:01:55;52.53;;;35.20;;
32824;SDS011;51060;42.640;24.356;2024-03-17T05:04:21;46.70;;;31.87;;
32824;SDS011;51060;42.640;24.356;2024-03-17T05:06:48;47.90;;;31.53;;
32824;SDS011;51060;42.640;24.356;2024-03-17T05:09:18;53.77;;;34.27;;
32824;SDS011;51060;42.640;24.356;2024-03-17T05:11:44;52.63;;;33.63;;
32824;SDS011;51060;42.640;24.356;2024-03-17T05:14:10;52.57;;;34.90;;
32824;SDS011;51060;42.640;24.356;2024-03-17T05:16:36;54.03;;;33.73;;
32824;SDS011;51060;42.640;24.356;2024-03-17T05:19:02;53.37;;;34.87;;
32824;SDS011;51060;42.640;24.356;2024-03-17T05:21:28;53.53;;;35.47;;
32824;SDS011;51060;42.640;24.356;2024-03-17T05:23:56;55.83;;;36.00;;
32824;SDS011;51060;42.640;24.356;2024-03-17T05:26:23;62.70;;;39.37;;
32824;SDS011;51060;42.640;24.356;2024-03-17T05:28:53;66.63;;;43.37;;
32824;SDS011;51060;42.640;24.356;2024-03-17T05:31:19;60.70;;;39.53;;
32824;SDS011;51060;42.640;24.356;2024-03-17T05:33:46;60.07;;;38.73;;
32824;SDS011;51060;42.640;24.356;2024-03-17T05:36:17;54.57;;;37.40;;
32824;SDS011;51060;42.640;24.356;2024-03-17T05:38:45;54.90;;;37.73;;
32824;SDS011;51060;42.640;24.356;2024-03-17T05:41:10;58.07;;;37.93;;
32824;SDS011;51060;42.640;24.356;2024-03-17T05:43:37;50.00;;;33.43;;
32824;SDS011;51060;42.640;24.356;2024-03-17T05:46:04;65.20;;;41.60;;
32824;SDS011;51060;42.640;24.356;2024-03-17T05:48:34;74.73;;;48.53;;
32824;SDS011;51060;42.640;24.356;2024-03-17T05:51:07;59.93;;;39.60;;
32824;SDS011;51060;42.640;24.356;2024-03-17T05:53:33;58.57;;;39.43;;
32824;SDS011;51060;42.640;24.356;2024-03-17T05:56:00;59.83;;;39.70;;
32824;SDS011;51060;42.640;24.356;2024-03-17T05:58:26;63.77;;;42.37;;
32824;SDS011;51060;42.640;24.356;2024-03-17T06:00:51;64.97;;;44.30;;
32824;SDS011;51060;42.640;24.356;2024-03-17T06:03:17;67.43;;;46.57;;
32824;SDS011;51060;42.640;24.356;2024-03-17T06:05:43;79.50;;;53.33;;
32824;SDS011;51060;42.640;24.356;2024-03-17T06:08:12;73.57;;;51.70;;
32824;SDS011;51060;42.640;24.356;2024-03-17T06:10:38;80.50;;;54.40;;
32824;SDS011;51060;42.640;24.356;2024-03-17T06:13:08;77.53;;;51.57;;
32824;SDS011;51060;42.640;24.356;2024-03-17T06:15:37;75.93;;;50.57;;
32824;SDS011;51060;42.640;24.356;2024-03-17T06:18:03;69.20;;;46.40;;
32824;SDS011;51060;42.640;24.356;2024-03-17T06:20:28;60.13;;;41.90;;
32824;SDS011;51060;42.640;24.356;2024-03-17T06:22:55;87.10;;;55.23;;
32824;SDS011;51060;42.640;24.356;2024-03-17T06:25:20;59.77;;;39.57;;
32824;SDS011;51060;42.640;24.356;2024-03-17T06:27:51;58.23;;;41.03;;
32824;SDS011;51060;42.640;24.356;2024-03-17T06:30:17;49.47;;;34.37;;
32824;SDS011;51060;42.640;24.356;2024-03-17T06:32:43;49.57;;;37.73;;
32824;SDS011;51060;42.640;24.356;2024-03-17T06:35:13;61.80;;;42.63;;
32824;SDS011;51060;42.640;24.356;2024-03-17T06:37:43;57.33;;;41.57;;
32824;SDS011;51060;42.640;24.356;2024-03-17T06:40:13;56.63;;;42.03;;
32824;SDS011;51060;42.640;24.356;2024-03-17T06:42:40;58.57;;;42.97;;
32824;SDS011;51060;42.640;24.356;2024-03-17T06:45:06;68.03;;;47.57;;
32824;SDS011;51060;42.640;24.356;2024-03-17T06:47:37;70.23;;;48.37;;
32824;SDS011;51060;42.640;24.356;2024-03-17T06:50:06;62.67;;;46.07;;
32824;SDS011;51060;42.640;24.356;2024-03-17T06:52:35;71.17;;;47.33;;
32824;SDS011;51060;42.640;24.356;2024-03-17T06:55:01;67.70;;;48.07;;
32824;SDS011;51060;42.640;24.356;2024-03-17T06:57:27;66.70;;;48.27;;
32824;SDS011;51060;42.640;24.356;2024-03-17T06:59:53;74.10;;;51.20;;
32824;SDS011;51060;42.640;24.356;2024-03-17T07:02:19;62.77;;;45.57;;
32824;SDS011;51060;42.640;24.356;2024-03-17T07:04:48;61.67;;;44.07;;
32824;SDS011;51060;42.640;24.356;2024-03-17T07:07:14;52.67;;;39.47;;
32824;SDS011;51060;42.640;24.356;2024-03-17T07:09:40;50.10;;;35.43;;
32824;SDS011;51060;42.640;24.356;2024-03-17T07:12:07;20.67;;;16.20;;
32824;SDS011;51060;42.640;24.356;2024-03-17T07:14:33;15.27;;;12.30;;
32824;SDS011;51060;42.640;24.356;2024-03-17T07:16:58;15.10;;;12.20;;
32824;SDS011;51060;42.640;24.356;2024-03-17T07:19:24;12.80;;;11.07;;
32824;SDS011;51060;42.640;24.356;2024-03-17T07:21:50;15.13;;;11.80;;
32824;SDS011;51060;42.640;24.356;2024-03-17T07:24:16;14.20;;;11.17;;
32824;SDS011;51060;42.640;24.356;2024-03-17T07:26:41;15.03;;;11.57;;
32824;SDS011;51060;42.640;24.356;2024-03-17T07:29:07;14.43;;;11.10;;
32824;SDS011;51060;42.640;24.356;2024-03-17T07:31:34;11.37;;;9.60;;
32824;SDS011;51060;42.640;24.356;2024-03-17T07:33:59;12.20;;;9.10;;
32824;SDS011;51060;42.640;24.356;2024-03-17T07:36:25;12.63;;;10.53;;
32824;SDS011;51060;42.640;24.356;2024-03-17T07:38:51;16.27;;;12.10;;
32824;SDS011;51060;42.640;24.356;2024-03-17T07:41:17;12.17;;;9.50;;
32824;SDS011;51060;42.640;24.356;2024-03-17T07:43:44;10.87;;;9.10;;
32824;SDS011;51060;42.640;24.356;2024-03-17T07:46:10;10.37;;;9.27;;
32824;SDS011;51060;42.640;24.356;2024-03-17T07:48:37;12.37;;;8.80;;
32824;SDS011;51060;42.640;24.356;2024-03-17T07:51:07;11.43;;;8.73;;
32824;SDS011;51060;42.640;24.356;2024-03-17T07:53:37;11.27;;;9.00;;
32824;SDS011;51060;42.640;24.356;2024-03-17T07:56:09;9.70;;;8.70;;
32824;SDS011;51060;42.640;24.356;2024-03-17T07:58:36;12.40;;;9.30;;
32824;SDS011;51060;42.640;24.356;2024-03-17T08:01:05;8.93;;;7.40;;
32824;SDS011;51060;42.640;24.356;2024-03-17T08:03:32;8.93;;;7.80;;
32824;SDS011;51060;42.640;24.356;2024-03-17T08:05:59;10.37;;;8.20;;
32824;SDS011;51060;42.640;24.356;2024-03-17T08:08:26;10.83;;;9.33;;
32824;SDS011;51060;42.640;24.356;2024-03-17T08:10:52;13.20;;;9.60;;
32824;SDS011;51060;42.640;24.356;2024-03-17T08:13:18;9.63;;;8.13;;
32824;SDS011;51060;42.640;24.356;2024-03-17T08:15:44;13.10;;;8.83;;
32824;SDS011;51060;42.640;24.356;2024-03-17T08:18:11;12.47;;;9.93;;
32824;SDS011;51060;42.640;24.356;2024-03-17T08:20:40;11.50;;;9.33;;
32824;SDS011;51060;42.640;24.356;2024-03-17T08:23:08;10.97;;;8.60;;
32824;SDS011;51060;42.640;24.356;2024-03-17T08:25:36;12.27;;;8.87;;
32824;SDS011;51060;42.640;24.356;2024-03-17T08:28:03;11.47;;;9.70;;
32824;SDS011;51060;42.640;24.356;2024-03-17T08:30:29;8.93;;;8.03;;
32824;SDS011;51060;42.640;24.356;2024-03-17T08:32:57;9.87;;;8.47;;
32824;SDS011;51060;42.640;24.356;2024-03-17T08:35:26;10.37;;;8.50;;
32824;SDS011;51060;42.640;24.356;2024-03-17T08:37:52;8.03;;;6.53;;
32824;SDS011;51060;42.640;24.356;2024-03-17T08:40:21;9.97;;;8.07;;
32824;SDS011;51060;42.640;24.356;2024-03-17T08:42:48;8.63;;;7.37;;
32824;SDS011;51060;42.640;24.356;2024-03-17T08:45:14;9.73;;;6.90;;
32824;SDS011;51060;42.640;24.356;2024-03-17T08:47:40;8.57;;;7.13;;
32824;SDS011;51060;42.640;24.356;2024-03-17T08:50:06;10.20;;;7.97;;
32824;SDS011;51060;42.640;24.356;2024-03-17T08:52:33;8.60;;;6.97;;
32824;SDS011;51060;42.640;24.356;2024-03-17T08:54:59;8.00;;;6.87;;
32824;SDS011;51060;42.640;24.356;2024-03-17T08:57:28;7.27;;;6.57;;
32824;SDS011;51060;42.640;24.356;2024-03-17T08:59:53;7.53;;;6.70;;
32824;SDS011;51060;42.640;24.356;2024-03-17T09:02:20;8.23;;;7.43;;
32824;SDS011;51060;42.640;24.356;2024-03-17T09:04:48;6.87;;;5.77;;
32824;SDS011;51060;42.640;24.356;2024-03-17T09:07:14;10.73;;;7.60;;
32824;SDS011;51060;42.640;24.356;2024-03-17T09:09:42;6.70;;;6.00;;
32824;SDS011;51060;42.640;24.356;2024-03-17T09:12:08;8.87;;;6.93;;
32824;SDS011;51060;42.640;24.356;2024-03-17T09:14:34;7.38;;;6.53;;
32824;SDS011;51060;42.640;24.356;2024-03-17T09:17:00;8.37;;;6.97;;
32824;SDS011;51060;42.640;24.356;2024-03-17T09:19:25;6.30;;;5.70;;
32824;SDS011;51060;42.640;24.356;2024-03-17T09:21:54;6.13;;;5.53;;
32824;SDS011;51060;42.640;24.356;2024-03-17T09:24:19;5.97;;;5.10;;
32824;SDS011;51060;42.640;24.356;2024-03-17T09:26:46;7.90;;;6.23;;
32824;SDS011;51060;42.640;24.356;2024-03-17T09:29:12;6.80;;;5.97;;
32824;SDS011;51060;42.640;24.356;2024-03-17T09:31:38;7.23;;;5.73;;
32824;SDS011;51060;42.640;24.356;2024-03-17T09:34:06;6.33;;;4.90;;
32824;SDS011;51060;42.640;24.356;2024-03-17T09:36:32;6.72;;;5.32;;
32824;SDS011;51060;42.640;24.356;2024-03-17T09:38:58;5.13;;;4.63;;
32824;SDS011;51060;42.640;24.356;2024-03-17T09:41:26;6.43;;;5.82;;
32824;SDS011;51060;42.640;24.356;2024-03-17T09:43:55;5.53;;;4.95;;
32824;SDS011;51060;42.640;24.356;2024-03-17T09:46:25;6.38;;;5.72;;
32824;SDS011;51060;42.640;24.356;2024-03-17T09:48:53;6.37;;;5.37;;
32824;SDS011;51060;42.640;24.356;2024-03-17T09:51:20;8.40;;;5.95;;
32824;SDS011;51060;42.640;24.356;2024-03-17T09:53:46;5.17;;;4.67;;
32824;SDS011;51060;42.640;24.356;2024-03-17T09:56:16;5.47;;;4.82;;
32824;SDS011;51060;42.640;24.356;2024-03-17T09:58:50;10.43;;;7.97;;
32824;SDS011;51060;42.640;24.356;2024-03-17T10:01:17;8.50;;;6.05;;
32824;SDS011;51060;42.640;24.356;2024-03-17T10:03:49;7.47;;;5.88;;
32824;SDS011;51060;42.640;24.356;2024-03-17T10:06:23;6.30;;;5.55;;
32824;SDS011;51060;42.640;24.356;2024-03-17T10:08:50;5.40;;;4.90;;
32824;SDS011;51060;42.640;24.356;2024-03-17T10:11:20;7.45;;;6.65;;
32824;SDS011;51060;42.640;24.356;2024-03-17T10:14:01;6.25;;;5.30;;
32824;SDS011;51060;42.640;24.356;2024-03-17T10:16:31;7.03;;;6.07;;
32824;SDS011;51060;42.640;24.356;2024-03-17T10:19:07;5.25;;;4.70;;
32824;SDS011;51060;42.640;24.356;2024-03-17T10:21:38;7.10;;;5.63;;
32824;SDS011;51060;42.640;24.356;2024-03-17T10:24:09;5.10;;;4.30;;
32824;SDS011;51060;42.640;24.356;2024-03-17T10:26:46;5.97;;;4.90;;
32824;SDS011;51060;42.640;24.356;2024-03-17T10:29:28;5.50;;;5.00;;
32824;SDS011;51060;42.640;24.356;2024-03-17T10:31:58;4.63;;;4.22;;
32824;SDS011;51060;42.640;24.356;2024-03-17T10:34:27;4.05;;;3.65;;
32824;SDS011;51060;42.640;24.356;2024-03-17T10:37:05;4.10;;;3.55;;
32824;SDS011;51060;42.640;24.356;2024-03-17T10:39:43;4.85;;;4.18;;
32824;SDS011;51060;42.640;24.356;2024-03-17T10:42:10;4.47;;;4.07;;
32824;SDS011;51060;42.640;24.356;2024-03-17T10:44:40;5.95;;;5.35;;
32824;SDS011;51060;42.640;24.356;2024-03-17T10:47:07;4.13;;;3.50;;
32824;SDS011;51060;42.640;24.356;2024-03-17T10:49:36;3.90;;;3.50;;
32824;SDS011;51060;42.640;24.356;2024-03-17T10:52:04;3.67;;;3.30;;
32824;SDS011;51060;42.640;24.356;2024-03-17T10:54:37;5.65;;;5.05;;
32824;SDS011;51060;42.640;24.356;2024-03-17T10:57:07;6.25;;;4.05;;
32824;SDS011;51060;42.640;24.356;2024-03-17T10:59:42;4.72;;;4.13;;
32824;SDS011;51060;42.640;24.356;2024-03-17T11:02:17;3.58;;;3.28;;
32824;SDS011;51060;42.640;24.356;2024-03-17T11:04:54;5.20;;;4.70;;
32824;SDS011;51060;42.640;24.356;2024-03-17T11:07:21;4.65;;;4.03;;
32824;SDS011;51060;42.640;24.356;2024-03-17T11:09:47;6.57;;;5.20;;
32824;SDS011;51060;42.640;24.356;2024-03-17T11:18:04;5.93;;;4.45;;
32824;SDS011;51060;42.640;24.356;2024-03-17T11:23:40;7.70;;;5.00;;
32824;SDS011;51060;42.640;24.356;2024-03-17T11:26:07;5.68;;;4.82;;
32824;SDS011;51060;42.640;24.356;2024-03-17T11:34:28;6.72;;;3.97;;
32824;SDS011;51060;42.640;24.356;2024-03-17T11:36:56;5.88;;;4.60;;
32824;SDS011;51060;42.640;24.356;2024-03-17T11:42:15;4.85;;;4.20;;
32824;SDS011;51060;42.640;24.356;2024-03-17T11:45:24;3.75;;;3.42;;
32824;SDS011;51060;42.640;24.356;2024-03-17T11:47:41;5.18;;;4.13;;
32824;SDS011;51060;42.640;24.356;2024-03-17T11:50:08;6.75;;;4.88;;
32824;SDS011;51060;42.640;24.356;2024-03-17T11:52:36;5.00;;;4.50;;
32824;SDS011;51060;42.640;24.356;2024-03-17T11:55:03;8.52;;;6.57;;
32824;SDS011;51060;42.640;24.356;2024-03-17T11:57:29;6.72;;;5.20;;
32824;SDS011;51060;42.640;24.356;2024-03-17T11:59:55;4.85;;;4.30;;
32824;SDS011;51060;42.640;24.356;2024-03-17T12:02:22;7.32;;;6.63;;
32824;SDS011;51060;42.640;24.356;2024-03-17T12:04:50;7.63;;;4.90;;
32824;SDS011;51060;42.640;24.356;2024-03-17T12:07:18;3.70;;;3.33;;
32824;SDS011;51060;42.640;24.356;2024-03-17T12:09:49;5.32;;;3.42;;
32824;SDS011;51060;42.640;24.356;2024-03-17T12:12:17;6.07;;;4.75;;
32824;SDS011;51060;42.640;24.356;2024-03-17T12:14:50;4.13;;;3.72;;
32824;SDS011;51060;42.640;24.356;2024-03-17T12:17:22;6.55;;;4.55;;
32824;SDS011;51060;42.640;24.356;2024-03-17T12:19:49;5.05;;;3.40;;
32824;SDS011;51060;42.640;24.356;2024-03-17T12:22:19;4.18;;;3.70;;
32824;SDS011;51060;42.640;24.356;2024-03-17T12:24:53;3.85;;;3.00;;
32824;SDS011;51060;42.640;24.356;2024-03-17T12:27:20;3.95;;;3.10;;
32824;SDS011;51060;42.640;24.356;2024-03-17T12:29:50;6.03;;;4.03;;
32824;SDS011;51060;42.640;24.356;2024-03-17T12:32:17;4.53;;;3.97;;
32824;SDS011;51060;42.640;24.356;2024-03-17T12:34:44;6.07;;;5.00;;
32824;SDS011;51060;42.640;24.356;2024-03-17T12:37:18;5.57;;;4.32;;
32824;SDS011;51060;42.640;24.356;2024-03-17T12:39:47;4.65;;;3.55;;
32824;SDS011;51060;42.640;24.356;2024-03-17T12:42:14;4.82;;;3.72;;
32824;SDS011;51060;42.640;24.356;2024-03-17T12:44:49;5.55;;;4.30;;
32824;SDS011;51060;42.640;24.356;2024-03-17T12:47:18;4.78;;;4.30;;
32824;SDS011;51060;42.640;24.356;2024-03-17T12:49:46;4.28;;;3.30;;
32824;SDS011;51060;42.640;24.356;2024-03-17T12:54:45;3.88;;;3.58;;
32824;SDS011;51060;42.640;24.356;2024-03-17T12:57:19;5.65;;;3.90;;
32824;SDS011;51060;42.640;24.356;2024-03-17T13:00:16;6.03;;;4.68;;
32824;SDS011;51060;42.640;24.356;2024-03-17T13:02:58;6.20;;;4.78;;
32824;SDS011;51060;42.640;24.356;2024-03-17T13:05:25;4.82;;;4.32;;
32824;SDS011;51060;42.640;24.356;2024-03-17T13:07:51;4.90;;;4.40;;
32824;SDS011;51060;42.640;24.356;2024-03-17T13:10:19;4.75;;;4.07;;
32824;SDS011;51060;42.640;24.356;2024-03-17T13:12:47;5.40;;;4.47;;
32824;SDS011;51060;42.640;24.356;2024-03-17T13:15:14;5.28;;;4.78;;
32824;SDS011;51060;42.640;24.356;2024-03-17T13:17:41;5.90;;;4.40;;
32824;SDS011;51060;42.640;24.356;2024-03-17T13:20:13;4.57;;;4.07;;
32824;SDS011;51060;42.640;24.356;2024-03-17T13:22:41;5.45;;;4.07;;
32824;SDS011;51060;42.640;24.356;2024-03-17T13:25:22;5.57;;;4.53;;
32824;SDS011;51060;42.640;24.356;2024-03-17T13:27:51;5.40;;;4.85;;
32824;SDS011;51060;42.640;24.356;2024-03-17T13:30:18;5.45;;;4.10;;
32824;SDS011;51060;42.640;24.356;2024-03-17T13:32:45;5.20;;;4.68;;
32824;SDS011;51060;42.640;24.356;2024-03-17T13:35:20;4.93;;;4.28;;
32824;SDS011;51060;42.640;24.356;2024-03-17T13:37:47;5.60;;;4.82;;
32824;SDS011;51060;42.640;24.356;2024-03-17T13:40:14;6.07;;;5.22;;
32824;SDS011;51060;42.640;24.356;2024-03-17T13:42:46;6.10;;;5.25;;
32824;SDS011;51060;42.640;24.356;2024-03-17T13:45:14;5.15;;;4.65;;
32824;SDS011;51060;42.640;24.356;2024-03-17T13:47:40;6.22;;;5.10;;
32824;SDS011;51060;42.640;24.356;2024-03-17T13:50:06;4.88;;;4.45;;
32824;SDS011;51060;42.640;24.356;2024-03-17T13:52:36;4.97;;;3.92;;
32824;SDS011;51060;42.640;24.356;2024-03-17T13:55:03;5.22;;;4.25;;
32824;SDS011;51060;42.640;24.356;2024-03-17T13:57:32;6.15;;;4.30;;
32824;SDS011;51060;42.640;24.356;2024-03-17T13:59:58;6.57;;;5.22;;
32824;SDS011;51060;42.640;24.356;2024-03-17T14:02:24;6.03;;;5.43;;
32824;SDS011;51060;42.640;24.356;2024-03-17T14:04:50;9.38;;;6.43;;
32824;SDS011;51060;42.640;24.356;2024-03-17T14:07:15;5.05;;;4.50;;
32824;SDS011;51060;42.640;24.356;2024-03-17T14:09:41;5.82;;;4.75;;
32824;SDS011;51060;42.640;24.356;2024-03-17T14:12:07;8.20;;;6.70;;
32824;SDS011;51060;42.640;24.356;2024-03-17T14:14:33;9.52;;;6.88;;
32824;SDS011;51060;42.640;24.356;2024-03-17T14:16:59;5.60;;;4.93;;
32824;SDS011;51060;42.640;24.356;2024-03-17T14:19:25;5.65;;;4.60;;
32824;SDS011;51060;42.640;24.356;2024-03-17T14:21:51;6.35;;;5.20;;
32824;SDS011;51060;42.640;24.356;2024-03-17T14:24:17;5.85;;;5.25;;
32824;SDS011;51060;42.640;24.356;2024-03-17T14:26:46;5.43;;;4.50;;
32824;SDS011;51060;42.640;24.356;2024-03-17T14:29:12;4.70;;;4.20;;
32824;SDS011;51060;42.640;24.356;2024-03-17T14:31:37;4.80;;;4.30;;
32824;SDS011;51060;42.640;24.356;2024-03-17T14:34:04;5.40;;;4.25;;
32824;SDS011;51060;42.640;24.356;2024-03-17T14:36:30;8.95;;;6.95;;
32824;SDS011;51060;42.640;24.356;2024-03-17T14:38:58;5.65;;;5.05;;
32824;SDS011;51060;42.640;24.356;2024-03-17T14:41:27;7.75;;;6.50;;
32824;SDS011;51060;42.640;24.356;2024-03-17T14:43:54;7.50;;;6.63;;
32824;SDS011;51060;42.640;24.356;2024-03-17T14:46:19;6.20;;;5.32;;